« 趣味的航空路誌改訂情報 2015/4/30 thu | トップページ | 護衛艦いせ公開 岩国港 2015/5/2 sat »

2015/05/04

日米親善デー2015【B.I.編】 岩国飛行場 2015/5/3 sun

色々迷った挙句に参戦しました。米海兵隊岩国航空基地。MCAS Iwakuni's Friendship Day

3年ぶりの航空ショーですが、まずはトリに最大限飛行したブルーインパルス編から・・

20150503_rjoi_bi00

行軍途中、基地正門に到達したのは、午前8時。雨がポツポツ降り出した。もう開門していて、ゆっくりとしたペースでセキュリティチェックが進んでいた。

METAR RJOI 030455Z 01003KT 4800 -SHRA BR FEW005 SCT045 OVC070 21/17 A2985 RMK SLP106 P0003 T02060167

時刻は14時半。ここまで、雨ながら精力的に展示飛行が続いてきたが、さてーブルーインパルスはどうなるのか・・・ 

20150503_rjoi_bi01

ウォークダウンが始まります。 14:34

20150503_rjoi_bi02

小生は岩国飛行場の北のどん詰まり、RW20エンド傍まで進出してブルー観戦です。

20150503_rjoi_bi03

でも、この時間です。小生には帰投までの時間が残されていません。ビンゴ間近。

20150503_rjoi_bi04

定期便のANA633の到着を待って、タクシーアウト。

METAR RJOI 030555Z 01003KT 9000 -SHRA BR FEW030 SOVC060 19/17 A2983 RMK SLP100 P0005 60015 T01940172 10206 20194 58017

20150503_rjoi_bi05

天候調査のため、まず#5が単独で離陸します。

20150503_rjoi_bi06

ローアングルからスモークを引いて西側から天候調査に入りました。

20150503_rjoi_bi07

4区分ならできそー 

20150503_rjoi_bi08

ダイヤモンドテイクオフ&ダーティーターン

20150503_rjoi_bi09

4区分!

20150503_rjoi_bi10

#6が単独でロールオン・テイクオフ

20150503_rjoi_bi11

雨でも綺麗な、ファン・ブレイク

20150503_rjoi_bi12

フォー・ポイント・ロール 小生も少しつつ撤収開始。

20150503_rjoi_bi13

チェンジ・オーバー・ターン

20150503_rjoi_bi14

雨とシーリングが悪いので、コンデジのピントが合わないのが多々。

20150503_rjoi_bi15

インバーテッド&コンテュニアス・ロール

20150503_rjoi_bi16

サンライズでなくって、レベルオープナー

20150503_rjoi_bi17

インバーテッド・ロール?? 

20150503_rjoi_bi18

スロー・ロール この辺、チョット? DT01付近 15:19

20150503_rjoi_bi19

20150503_rjoi_bi20

レター・エイト

20150503_rjoi_bi21

バック・トゥ・バック?

20150503_rjoi_bi22

トレール・トゥ・ダイヤモンド・ロール

20150503_rjoi_bi23

オポジット・コンティニュアス・ロール

20150503_rjoi_bi24

超ー優等席

20150503_rjoi_bi25

フォー・シップ・インバート タワー前 15:27

ここでビッグハートなのだが・・・ 白くて見栄ねえ

20150503_rjoi_bi26

20150503_rjoi_bi27

シングル・クローバーリーフ・ターン

20150503_rjoi_bi28

20150503_rjoi_bi29

オポジット・トライアングル チョイ、トラブル?

20150503_rjoi_bi30

ボントン・ロール

20150503_rjoi_bi31

残念ながら サクラ はなし

20150503_rjoi_bi32

タック・クロスIIの代わりに・・・ 

20150503_rjoi_bi33

コーク・スクリュー 見せます!

20150503_rjoi_bi34

最後は、ローリング・コンバット・ピッチ 15:37 飛行場地区出口

20150503_rjoi_bi35

ようやく基地正門に戻ってきた。行軍は続く。 15:59

20150503_rjoi_bi36

岩国駅東口からようやく構内へ 16:33

順次、アップしていきますので、気長に付き合ってください。

|

« 趣味的航空路誌改訂情報 2015/4/30 thu | トップページ | 護衛艦いせ公開 岩国港 2015/5/2 sat »

BI」カテゴリの記事

岩国飛行場」カテゴリの記事

コメント

コメントを書く



(ウェブ上には掲載しません)


コメントは記事投稿者が公開するまで表示されません。



トラックバック


この記事へのトラックバック一覧です: 日米親善デー2015【B.I.編】 岩国飛行場 2015/5/3 sun:

« 趣味的航空路誌改訂情報 2015/4/30 thu | トップページ | 護衛艦いせ公開 岩国港 2015/5/2 sat »